Weather at Dimass Heliport

Public forecast

Using degrees Celsius for public forecast. Weather courtesy of forecast.io.

Closest aviation weather report (METAR) to Dimass Heliport

Report is more than 2 hours old.

Closest report is Damascus International Airport, 24.3 nm (45.0 km) ESE.

2024/05/26 08:00 (retrieved 2 hours ago)

OSDI 260800Z 27004KT CAVOK 24/09 Q1014

Closest aviation forecast (TAF) to Dimass Heliport

Forecast is more than 12 hours old.

Closest forecast is Damascus International Airport, 24.3 nm (45.0 km) ESE.

2024/05/25 06:36 (retrieved 1 day ago)

TAF OSDI 250400Z 2506/2612 23015KT CAVOK TEMPO 2512/2518 24015G25KT 9999 FEW030